Langebaanweg Airport

Airport
ICAO code: 
FALW
Summary
ICAO Region: 
AFI
Territory: 
Location: 
, Western Cape
Serving: 
Langebaanweg
Elevation: 
108 ft
Coordinates: 
Aerial View: 
32° 58' 8" S, 18° 9' 37.001" E
Metar
Observation
FALW 040100Z AUTO 21006KT //// // ////// 16/10 Q1009
Station
Langebaanweg
Date/Time
2021-12-04 01:00:00
Wind direction
210°
Wind speed
06 kts
Lowest cloud amount
n/a
Temperature
16°C
Dew point
10°C
Humidity
67%
QNH
1009 hPa
Weather condition
n/a

Runways

Designator Length Width Surface Rops
7/25 1504 46 ASP No/No
16/34 1991 46 ASP No/No
02L/20R 2341 46 ASP No/No
02R/20L 2344 46 ASP No/No
Airport map: 
Aerial View: 

SKYbrary Partners:

Safety knowledge contributed by: